sensor_id;sensor_type;location;lat;lon;timestamp;pressure;altitude;pressure_sealevel;temperature;humidity
39223;BME280;24936;46.328;11.026;2023-02-17T00:02:07;95412.56;;;0.27;67.61
39223;BME280;24936;46.328;11.026;2023-02-17T00:04:33;95413.34;;;0.06;67.97
39223;BME280;24936;46.328;11.026;2023-02-17T00:06:59;95408.91;;;-0.43;70.19
39223;BME280;24936;46.328;11.026;2023-02-17T00:09:24;95408.78;;;-0.94;72.16
39223;BME280;24936;46.328;11.026;2023-02-17T00:11:50;95407.88;;;-0.93;72.41
39223;BME280;24936;46.328;11.026;2023-02-17T00:14:16;95406.78;;;-0.85;72.31
39223;BME280;24936;46.328;11.026;2023-02-17T00:16:41;95396.31;;;-0.54;71.27
39223;BME280;24936;46.328;11.026;2023-02-17T00:19:09;95404.03;;;-0.79;71.88
39223;BME280;24936;46.328;11.026;2023-02-17T00:21:56;95413.84;;;-1.19;73.79
39223;BME280;24936;46.328;11.026;2023-02-17T00:24:24;95413.66;;;-1.13;73.55
39223;BME280;24936;46.328;11.026;2023-02-17T00:26:50;95406.69;;;-0.82;72.55
39223;BME280;24936;46.328;11.026;2023-02-17T00:29:16;95418.03;;;-0.59;71.50
39223;BME280;24936;46.328;11.026;2023-02-17T00:31:42;95405.31;;;-0.93;72.76
39223;BME280;24936;46.328;11.026;2023-02-17T00:34:08;95404.06;;;-1.09;72.97
39223;BME280;24936;46.328;11.026;2023-02-17T00:36:33;95412.09;;;-1.18;73.80
39223;BME280;24936;46.328;11.026;2023-02-17T00:38:59;95411.97;;;-1.44;74.17
39223;BME280;24936;46.328;11.026;2023-02-17T00:41:26;95414.94;;;-1.28;74.01
39223;BME280;24936;46.328;11.026;2023-02-17T00:43:53;95426.38;;;-1.06;73.26
39223;BME280;24936;46.328;11.026;2023-02-17T00:46:18;95416.63;;;-0.97;72.22
39223;BME280;24936;46.328;11.026;2023-02-17T00:48:44;95419.91;;;-0.91;72.23
39223;BME280;24936;46.328;11.026;2023-02-17T00:51:10;95410.97;;;-0.81;72.12
39223;BME280;24936;46.328;11.026;2023-02-17T00:53:35;95413.97;;;-1.24;73.54
39223;BME280;24936;46.328;11.026;2023-02-17T00:56:01;95424.63;;;-1.34;74.26
39223;BME280;24936;46.328;11.026;2023-02-17T00:58:28;95416.88;;;-1.34;74.84
39223;BME280;24936;46.328;11.026;2023-02-17T01:00:57;95417.31;;;-1.20;74.17
39223;BME280;24936;46.328;11.026;2023-02-17T01:03:23;95408.22;;;-1.33;74.60
39223;BME280;24936;46.328;11.026;2023-02-17T01:05:49;95415.22;;;-1.37;74.69
39223;BME280;24936;46.328;11.026;2023-02-17T01:08:15;95428.66;;;-1.26;74.09
39223;BME280;24936;46.328;11.026;2023-02-17T01:10:42;95426.38;;;-1.35;74.51
39223;BME280;24936;46.328;11.026;2023-02-17T01:13:09;95426.38;;;-1.35;74.29
39223;BME280;24936;46.328;11.026;2023-02-17T01:15:44;95420.97;;;-1.27;73.94
39223;BME280;24936;46.328;11.026;2023-02-17T01:18:09;95418.31;;;-0.96;72.90
39223;BME280;24936;46.328;11.026;2023-02-17T01:20:36;95424.13;;;-0.89;72.75
39223;BME280;24936;46.328;11.026;2023-02-17T01:23:02;95416.84;;;-1.33;73.96
39223;BME280;24936;46.328;11.026;2023-02-17T01:25:28;95419.50;;;-1.36;74.62
39223;BME280;24936;46.328;11.026;2023-02-17T01:27:53;95418.63;;;-1.35;74.39
39223;BME280;24936;46.328;11.026;2023-02-17T01:30:19;95416.91;;;-1.36;74.56
39223;BME280;24936;46.328;11.026;2023-02-17T01:32:44;95406.75;;;-1.42;74.84
39223;BME280;24936;46.328;11.026;2023-02-17T01:35:10;95406.38;;;-1.28;74.06
39223;BME280;24936;46.328;11.026;2023-02-17T01:37:36;95400.56;;;-0.78;72.15
39223;BME280;24936;46.328;11.026;2023-02-17T01:40:01;95396.22;;;-0.78;71.49
39223;BME280;24936;46.328;11.026;2023-02-17T01:42:27;95404.75;;;-1.04;72.87
39223;BME280;24936;46.328;11.026;2023-02-17T01:47:40;95403.63;;;-1.54;74.53
39223;BME280;24936;46.328;11.026;2023-02-17T01:50:06;95406.72;;;-1.72;75.36
39223;BME280;24936;46.328;11.026;2023-02-17T01:52:31;95403.00;;;-1.93;75.92
39223;BME280;24936;46.328;11.026;2023-02-17T01:55:02;95405.28;;;-2.14;76.49
39223;BME280;24936;46.328;11.026;2023-02-17T01:57:32;95395.91;;;-2.17;77.00
39223;BME280;24936;46.328;11.026;2023-02-17T01:59:59;95392.72;;;-2.28;77.29
39223;BME280;24936;46.328;11.026;2023-02-17T02:02:25;95387.34;;;-2.19;77.41
39223;BME280;24936;46.328;11.026;2023-02-17T02:04:54;95389.75;;;-1.81;76.33
39223;BME280;24936;46.328;11.026;2023-02-17T02:07:25;95385.03;;;-1.35;74.27
39223;BME280;24936;46.328;11.026;2023-02-17T02:09:54;95388.03;;;-1.80;75.45
39223;BME280;24936;46.328;11.026;2023-02-17T02:12:24;95391.94;;;-1.97;75.99
39223;BME280;24936;46.328;11.026;2023-02-17T02:14:50;95399.41;;;-1.88;76.16
39223;BME280;24936;46.328;11.026;2023-02-17T02:34:29;95373.91;;;-2.65;78.67
39223;BME280;24936;46.328;11.026;2023-02-17T02:37:15;95379.75;;;-2.25;77.67
39223;BME280;24936;46.328;11.026;2023-02-17T02:39:46;95369.44;;;-2.58;78.30
39223;BME280;24936;46.328;11.026;2023-02-17T02:42:16;95379.09;;;-2.66;79.18
39223;BME280;24936;46.328;11.026;2023-02-17T02:44:43;95372.53;;;-2.80;79.73
39223;BME280;24936;46.328;11.026;2023-02-17T02:50:06;95375.94;;;-2.78;80.04
39223;BME280;24936;46.328;11.026;2023-02-17T03:00:37;95364.16;;;-2.20;77.02
39223;BME280;24936;46.328;11.026;2023-02-17T03:05:54;95371.00;;;-2.19;77.07
39223;BME280;24936;46.328;11.026;2023-02-17T03:08:43;95375.69;;;-2.34;77.13
39223;BME280;24936;46.328;11.026;2023-02-17T03:11:32;95381.84;;;-2.39;77.51
39223;BME280;24936;46.328;11.026;2023-02-17T03:14:10;95376.13;;;-2.51;77.94
39223;BME280;24936;46.328;11.026;2023-02-17T03:16:37;95379.44;;;-2.46;77.94
39223;BME280;24936;46.328;11.026;2023-02-17T03:19:03;95369.28;;;-2.52;77.82
39223;BME280;24936;46.328;11.026;2023-02-17T03:21:38;95371.91;;;-2.55;77.95
39223;BME280;24936;46.328;11.026;2023-02-17T03:24:04;95380.41;;;-2.50;78.14
39223;BME280;24936;46.328;11.026;2023-02-17T03:26:30;95375.25;;;-2.50;77.90
39223;BME280;24936;46.328;11.026;2023-02-17T03:28:55;95377.56;;;-2.40;78.03
39223;BME280;24936;46.328;11.026;2023-02-17T03:31:21;95372.88;;;-2.24;77.20
39223;BME280;24936;46.328;11.026;2023-02-17T03:33:50;95369.25;;;-1.86;75.90
39223;BME280;24936;46.328;11.026;2023-02-17T03:36:16;95373.72;;;-1.61;74.07
39223;BME280;24936;46.328;11.026;2023-02-17T03:38:41;95377.78;;;-1.83;74.87
39223;BME280;24936;46.328;11.026;2023-02-17T03:41:07;95383.72;;;-2.11;75.89
39223;BME280;24936;46.328;11.026;2023-02-17T03:43:33;95378.31;;;-2.35;76.84
39223;BME280;24936;46.328;11.026;2023-02-17T03:45:59;95379.13;;;-2.33;77.28
39223;BME280;24936;46.328;11.026;2023-02-17T03:51:46;95390.81;;;-2.20;76.93
39223;BME280;24936;46.328;11.026;2023-02-17T03:54:11;95385.28;;;-2.06;76.52
39223;BME280;24936;46.328;11.026;2023-02-17T03:56:37;95397.16;;;-2.00;76.79
39223;BME280;24936;46.328;11.026;2023-02-17T03:59:03;95387.88;;;-1.74;75.99
39223;BME280;24936;46.328;11.026;2023-02-17T04:01:28;95385.84;;;-1.63;75.41
39223;BME280;24936;46.328;11.026;2023-02-17T04:03:54;95384.97;;;-1.63;75.50
39223;BME280;24936;46.328;11.026;2023-02-17T04:06:19;95390.34;;;-1.71;76.88
39223;BME280;24936;46.328;11.026;2023-02-17T04:08:45;95393.66;;;-1.66;76.17
39223;BME280;24936;46.328;11.026;2023-02-17T04:11:10;95400.97;;;-1.50;75.34
39223;BME280;24936;46.328;11.026;2023-02-17T04:13:36;95398.47;;;-1.54;75.77
39223;BME280;24936;46.328;11.026;2023-02-17T04:16:02;95392.41;;;-1.52;76.26
39223;BME280;24936;46.328;11.026;2023-02-17T04:18:29;95389.47;;;-1.70;77.29
39223;BME280;24936;46.328;11.026;2023-02-17T04:20:54;95398.44;;;-1.83;77.86
39223;BME280;24936;46.328;11.026;2023-02-17T04:23:20;95395.16;;;-1.89;77.96
39223;BME280;24936;46.328;11.026;2023-02-17T04:25:46;95391.72;;;-1.89;77.52
39223;BME280;24936;46.328;11.026;2023-02-17T04:28:12;95397.00;;;-1.94;77.75
39223;BME280;24936;46.328;11.026;2023-02-17T04:30:38;95390.16;;;-1.95;77.94
39223;BME280;24936;46.328;11.026;2023-02-17T04:33:04;95387.69;;;-2.00;77.60
39223;BME280;24936;46.328;11.026;2023-02-17T04:35:30;95389.19;;;-1.91;76.94
39223;BME280;24936;46.328;11.026;2023-02-17T04:37:55;95383.91;;;-1.86;76.65
39223;BME280;24936;46.328;11.026;2023-02-17T04:40:21;95394.81;;;-1.76;76.22
39223;BME280;24936;46.328;11.026;2023-02-17T04:42:47;95388.84;;;-1.78;75.79
39223;BME280;24936;46.328;11.026;2023-02-17T04:45:12;95400.72;;;-1.73;75.60
39223;BME280;24936;46.328;11.026;2023-02-17T04:47:39;95399.19;;;-1.78;75.80
39223;BME280;24936;46.328;11.026;2023-02-17T04:50:06;95402.09;;;-1.91;75.79
39223;BME280;24936;46.328;11.026;2023-02-17T04:52:32;95398.03;;;-2.00;76.12
39223;BME280;24936;46.328;11.026;2023-02-17T04:54:58;95397.47;;;-1.79;75.38
39223;BME280;24936;46.328;11.026;2023-02-17T04:57:23;95394.56;;;-2.00;75.88
39223;BME280;24936;46.328;11.026;2023-02-17T04:59:48;95395.06;;;-1.86;75.51
39223;BME280;24936;46.328;11.026;2023-02-17T05:02:14;95394.44;;;-1.94;74.93
39223;BME280;24936;46.328;11.026;2023-02-17T05:04:39;95402.03;;;-2.21;76.41
39223;BME280;24936;46.328;11.026;2023-02-17T05:07:04;95392.66;;;-2.25;76.91
39223;BME280;24936;46.328;11.026;2023-02-17T05:09:30;95404.91;;;-2.33;77.07
39223;BME280;24936;46.328;11.026;2023-02-17T05:11:55;95402.34;;;-2.35;77.65
39223;BME280;24936;46.328;11.026;2023-02-17T05:14:21;95397.00;;;-2.27;77.08
39223;BME280;24936;46.328;11.026;2023-02-17T05:16:46;95396.03;;;-2.23;76.82
39223;BME280;24936;46.328;11.026;2023-02-17T05:19:12;95394.66;;;-2.36;77.62
39223;BME280;24936;46.328;11.026;2023-02-17T05:21:37;95393.13;;;-2.43;78.03
39223;BME280;24936;46.328;11.026;2023-02-17T05:24:03;95409.72;;;-2.54;78.97
39223;BME280;24936;46.328;11.026;2023-02-17T05:26:29;95407.06;;;-2.51;78.81
39223;BME280;24936;46.328;11.026;2023-02-17T05:28:54;95400.13;;;-2.14;77.38
39223;BME280;24936;46.328;11.026;2023-02-17T05:31:20;95413.84;;;-2.12;76.97
39223;BME280;24936;46.328;11.026;2023-02-17T05:33:45;95408.44;;;-2.37;77.68
39223;BME280;24936;46.328;11.026;2023-02-17T05:36:11;95412.22;;;-2.51;78.76
39223;BME280;24936;46.328;11.026;2023-02-17T05:38:38;95417.31;;;-2.48;78.77
39223;BME280;24936;46.328;11.026;2023-02-17T05:41:04;95410.59;;;-2.55;79.59
39223;BME280;24936;46.328;11.026;2023-02-17T05:43:30;95419.06;;;-2.50;79.26
39223;BME280;24936;46.328;11.026;2023-02-17T05:46:03;95411.66;;;-2.29;78.26
39223;BME280;24936;46.328;11.026;2023-02-17T05:48:28;95423.22;;;-2.09;77.38
39223;BME280;24936;46.328;11.026;2023-02-17T05:50:54;95418.00;;;-2.08;77.06
39223;BME280;24936;46.328;11.026;2023-02-17T05:53:19;95417.91;;;-2.03;76.51
39223;BME280;24936;46.328;11.026;2023-02-17T05:55:45;95416.31;;;-2.09;76.95
39223;BME280;24936;46.328;11.026;2023-02-17T05:58:10;95416.19;;;-2.37;78.63
39223;BME280;24936;46.328;11.026;2023-02-17T06:00:35;95414.75;;;-2.49;79.12
39223;BME280;24936;46.328;11.026;2023-02-17T06:03:01;95417.00;;;-2.35;78.27
39223;BME280;24936;46.328;11.026;2023-02-17T06:05:26;95409.25;;;-2.35;78.09
39223;BME280;24936;46.328;11.026;2023-02-17T06:07:52;95426.06;;;-2.55;79.23
39223;BME280;24936;46.328;11.026;2023-02-17T06:10:17;95430.31;;;-2.52;79.05
39223;BME280;24936;46.328;11.026;2023-02-17T06:12:42;95423.41;;;-2.52;79.09
39223;BME280;24936;46.328;11.026;2023-02-17T06:15:08;95427.63;;;-2.48;79.35
39223;BME280;24936;46.328;11.026;2023-02-17T06:17:33;95423.91;;;-2.37;79.30
39223;BME280;24936;46.328;11.026;2023-02-17T06:19:59;95427.53;;;-2.10;77.49
39223;BME280;24936;46.328;11.026;2023-02-17T06:22:24;95439.00;;;-2.22;78.56
39223;BME280;24936;46.328;11.026;2023-02-17T06:24:49;95438.94;;;-2.19;78.91
39223;BME280;24936;46.328;11.026;2023-02-17T06:27:15;95434.09;;;-1.98;77.80
39223;BME280;24936;46.328;11.026;2023-02-17T06:29:40;95436.34;;;-1.86;77.26
39223;BME280;24936;46.328;11.026;2023-02-17T06:32:06;95444.41;;;-1.65;76.81
39223;BME280;24936;46.328;11.026;2023-02-17T06:34:31;95435.72;;;-1.62;77.06
39223;BME280;24936;46.328;11.026;2023-02-17T06:36:57;95440.00;;;-1.61;78.17
39223;BME280;24936;46.328;11.026;2023-02-17T06:39:22;95442.38;;;-1.54;77.75
39223;BME280;24936;46.328;11.026;2023-02-17T06:41:48;95440.09;;;-1.64;78.46
39223;BME280;24936;46.328;11.026;2023-02-17T06:44:13;95443.19;;;-1.51;77.99
39223;BME280;24936;46.328;11.026;2023-02-17T06:46:38;95443.44;;;-1.31;76.32
39223;BME280;24936;46.328;11.026;2023-02-17T06:49:04;95432.66;;;-1.14;75.76
39223;BME280;24936;46.328;11.026;2023-02-17T06:51:29;95433.53;;;-1.15;76.33
39223;BME280;24936;46.328;11.026;2023-02-17T06:53:55;95435.03;;;-1.08;76.97
39223;BME280;24936;46.328;11.026;2023-02-17T06:56:20;95442.78;;;-1.08;76.65
39223;BME280;24936;46.328;11.026;2023-02-17T06:58:46;95437.00;;;-0.87;75.28
39223;BME280;24936;46.328;11.026;2023-02-17T07:01:20;95434.66;;;-0.67;74.06
39223;BME280;24936;46.328;11.026;2023-02-17T07:03:46;95430.69;;;-0.50;74.28
39223;BME280;24936;46.328;11.026;2023-02-17T07:06:11;95435.41;;;-0.63;75.79
39223;BME280;24936;46.328;11.026;2023-02-17T07:08:37;95441.47;;;-0.64;75.28
39223;BME280;24936;46.328;11.026;2023-02-17T07:11:07;95441.06;;;-0.50;74.39
39223;BME280;24936;46.328;11.026;2023-02-17T07:13:33;95444.22;;;-0.42;75.16
39223;BME280;24936;46.328;11.026;2023-02-17T07:15:58;95438.88;;;-0.36;74.43
39223;BME280;24936;46.328;11.026;2023-02-17T07:18:24;95442.63;;;-0.46;76.50
39223;BME280;24936;46.328;11.026;2023-02-17T07:20:49;95442.22;;;-0.34;74.92
39223;BME280;24936;46.328;11.026;2023-02-17T07:23:14;95446.25;;;-0.25;74.60
39223;BME280;24936;46.328;11.026;2023-02-17T07:25:40;95441.84;;;-0.21;73.61
39223;BME280;24936;46.328;11.026;2023-02-17T07:28:05;95448.09;;;-0.02;73.35
39223;BME280;24936;46.328;11.026;2023-02-17T07:30:31;95451.47;;;0.26;74.33
39223;BME280;24936;46.328;11.026;2023-02-17T07:32:56;95449.31;;;0.13;73.59
39223;BME280;24936;46.328;11.026;2023-02-17T07:35:22;95449.66;;;0.28;72.21
39223;BME280;24936;46.328;11.026;2023-02-17T07:37:47;95447.28;;;0.47;71.83
39223;BME280;24936;46.328;11.026;2023-02-17T07:40:13;95455.06;;;0.47;71.61
39223;BME280;24936;46.328;11.026;2023-02-17T07:42:38;95444.28;;;0.58;70.54
39223;BME280;24936;46.328;11.026;2023-02-17T07:45:04;95448.75;;;0.78;70.01
39223;BME280;24936;46.328;11.026;2023-02-17T07:47:31;95450.56;;;1.00;70.01
39223;BME280;24936;46.328;11.026;2023-02-17T07:49:56;95454.13;;;1.19;69.13
39223;BME280;24936;46.328;11.026;2023-02-17T07:52:22;95454.88;;;1.45;68.78
39223;BME280;24936;46.328;11.026;2023-02-17T07:54:47;95461.03;;;1.65;67.67
39223;BME280;24936;46.328;11.026;2023-02-17T07:57:12;95462.47;;;1.72;66.52
39223;BME280;24936;46.328;11.026;2023-02-17T07:59:38;95454.22;;;1.83;67.22
39223;BME280;24936;46.328;11.026;2023-02-17T08:02:03;95459.19;;;2.10;65.45
39223;BME280;24936;46.328;11.026;2023-02-17T08:04:28;95464.06;;;2.18;64.31
39223;BME280;24936;46.328;11.026;2023-02-17T08:06:54;95472.00;;;2.35;63.81
39223;BME280;24936;46.328;11.026;2023-02-17T08:09:19;95465.69;;;2.41;63.39
39223;BME280;24936;46.328;11.026;2023-02-17T08:12:03;95473.50;;;2.62;63.55
39223;BME280;24936;46.328;11.026;2023-02-17T08:14:47;95468.56;;;2.74;62.05
39223;BME280;24936;46.328;11.026;2023-02-17T08:17:12;95468.31;;;2.81;62.43
39223;BME280;24936;46.328;11.026;2023-02-17T08:19:38;95470.59;;;3.08;60.54
39223;BME280;24936;46.328;11.026;2023-02-17T08:22:03;95460.09;;;3.47;59.89
39223;BME280;24936;46.328;11.026;2023-02-17T08:24:28;95465.19;;;3.68;59.04
39223;BME280;24936;46.328;11.026;2023-02-17T08:26:54;95458.75;;;3.58;58.76
39223;BME280;24936;46.328;11.026;2023-02-17T08:29:20;95446.91;;;3.50;59.21
39223;BME280;24936;46.328;11.026;2023-02-17T08:31:50;95454.41;;;3.39;57.74
39223;BME280;24936;46.328;11.026;2023-02-17T08:34:16;95458.66;;;3.96;57.52
39223;BME280;24936;46.328;11.026;2023-02-17T08:36:42;95446.16;;;4.20;57.64
39223;BME280;24936;46.328;11.026;2023-02-17T08:39:11;95456.78;;;4.33;58.06
39223;BME280;24936;46.328;11.026;2023-02-17T08:41:37;95453.66;;;4.26;59.50
39223;BME280;24936;46.328;11.026;2023-02-17T08:44:10;95456.56;;;4.03;60.51
39223;BME280;24936;46.328;11.026;2023-02-17T08:46:36;95453.16;;;4.02;60.76
39223;BME280;24936;46.328;11.026;2023-02-17T08:49:02;95455.03;;;3.98;60.08
39223;BME280;24936;46.328;11.026;2023-02-17T08:51:28;95463.78;;;4.15;60.17
39223;BME280;24936;46.328;11.026;2023-02-17T08:53:57;95454.13;;;4.52;58.96
39223;BME280;24936;46.328;11.026;2023-02-17T08:56:24;95450.94;;;4.63;58.82
39223;BME280;24936;46.328;11.026;2023-02-17T08:58:50;95442.31;;;5.44;55.90
39223;BME280;24936;46.328;11.026;2023-02-17T09:01:16;95441.31;;;6.40;53.18
39223;BME280;24936;46.328;11.026;2023-02-17T09:03:43;95442.25;;;6.97;51.63
39223;BME280;24936;46.328;11.026;2023-02-17T09:06:09;95447.31;;;7.14;49.81
39223;BME280;24936;46.328;11.026;2023-02-17T09:08:35;95451.47;;;8.28;49.34
39223;BME280;24936;46.328;11.026;2023-02-17T09:11:01;95442.50;;;9.10;44.01
39223;BME280;24936;46.328;11.026;2023-02-17T09:13:26;95435.81;;;10.04;41.75
39223;BME280;24936;46.328;11.026;2023-02-17T09:15:53;95440.72;;;10.09;42.38
39223;BME280;24936;46.328;11.026;2023-02-17T09:18:19;95432.94;;;9.59;43.07
39223;BME280;24936;46.328;11.026;2023-02-17T09:20:45;95436.66;;;10.40;41.76
39223;BME280;24936;46.328;11.026;2023-02-17T09:23:11;95436.28;;;10.81;41.95
39223;BME280;24936;46.328;11.026;2023-02-17T09:25:36;95422.16;;;10.70;40.68
39223;BME280;24936;46.328;11.026;2023-02-17T09:28:02;95422.91;;;11.07;41.32
39223;BME280;24936;46.328;11.026;2023-02-17T09:30:27;95426.47;;;10.94;41.88
39223;BME280;24936;46.328;11.026;2023-02-17T09:32:52;95427.00;;;11.77;38.70
39223;BME280;24936;46.328;11.026;2023-02-17T09:35:18;95427.31;;;12.07;37.67
39223;BME280;24936;46.328;11.026;2023-02-17T09:37:44;95420.81;;;12.11;38.90
39223;BME280;24936;46.328;11.026;2023-02-17T09:40:35;95420.63;;;11.36;37.13
39223;BME280;24936;46.328;11.026;2023-02-17T09:43:03;95414.63;;;12.01;36.66
39223;BME280;24936;46.328;11.026;2023-02-17T09:45:34;95421.88;;;11.65;35.88
39223;BME280;24936;46.328;11.026;2023-02-17T09:48:04;95424.66;;;12.18;37.01
39223;BME280;24936;46.328;11.026;2023-02-17T09:50:44;95425.19;;;12.01;36.10
39223;BME280;24936;46.328;11.026;2023-02-17T09:53:23;95427.69;;;10.79;36.41
39223;BME280;24936;46.328;11.026;2023-02-17T09:55:54;95433.78;;;11.91;36.88
39223;BME280;24936;46.328;11.026;2023-02-17T10:00:53;95419.16;;;11.55;34.98
39223;BME280;24936;46.328;11.026;2023-02-17T10:03:33;95420.38;;;10.94;37.08
39223;BME280;24936;46.328;11.026;2023-02-17T10:09:43;95414.97;;;10.01;38.38
39223;BME280;24936;46.328;11.026;2023-02-17T10:11:56;95424.91;;;10.33;36.03
39223;BME280;24936;46.328;11.026;2023-02-17T10:14:28;95428.06;;;10.14;38.12
39223;BME280;24936;46.328;11.026;2023-02-17T10:17:33;95421.34;;;10.10;37.14
39223;BME280;24936;46.328;11.026;2023-02-17T10:22:44;95415.66;;;10.16;38.07
39223;BME280;24936;46.328;11.026;2023-02-17T10:25:17;95411.63;;;11.27;38.95
39223;BME280;24936;46.328;11.026;2023-02-17T10:28:02;95415.09;;;11.39;38.38
39223;BME280;24936;46.328;11.026;2023-02-17T10:30:39;95408.53;;;12.21;35.50
39223;BME280;24936;46.328;11.026;2023-02-17T10:33:13;95405.41;;;12.28;36.29
39223;BME280;24936;46.328;11.026;2023-02-17T10:38:16;95395.53;;;12.93;35.18
39223;BME280;24936;46.328;11.026;2023-02-17T10:40:48;95399.25;;;12.38;34.93
39223;BME280;24936;46.328;11.026;2023-02-17T10:43:21;95392.06;;;11.97;36.50
39223;BME280;24936;46.328;11.026;2023-02-17T10:45:49;95385.75;;;12.63;36.02
39223;BME280;24936;46.328;11.026;2023-02-17T10:48:39;95389.16;;;11.67;35.25
39223;BME280;24936;46.328;11.026;2023-02-17T10:51:06;95383.38;;;11.73;35.88
39223;BME280;24936;46.328;11.026;2023-02-17T10:53:35;95372.28;;;12.02;35.19
39223;BME280;24936;46.328;11.026;2023-02-17T10:56:22;95363.50;;;14.47;32.25
39223;BME280;24936;46.328;11.026;2023-02-17T10:59:02;95360.72;;;14.19;30.76
39223;BME280;24936;46.328;11.026;2023-02-17T11:01:31;95350.41;;;14.16;32.32
39223;BME280;24936;46.328;11.026;2023-02-17T11:04:08;95354.88;;;15.02;32.81
39223;BME280;24936;46.328;11.026;2023-02-17T11:06:47;95353.94;;;15.49;28.39
39223;BME280;24936;46.328;11.026;2023-02-17T11:09:25;95341.94;;;14.89;28.27
39223;BME280;24936;46.328;11.026;2023-02-17T11:12:03;95334.47;;;13.37;31.23
39223;BME280;24936;46.328;11.026;2023-02-17T11:14:31;95334.81;;;13.54;33.69
39223;BME280;24936;46.328;11.026;2023-02-17T11:17:13;95331.53;;;12.90;32.65
39223;BME280;24936;46.328;11.026;2023-02-17T11:19:39;95314.13;;;13.18;33.21
39223;BME280;24936;46.328;11.026;2023-02-17T11:22:18;95300.25;;;13.36;33.01
39223;BME280;24936;46.328;11.026;2023-02-17T11:24:58;95307.34;;;14.43;31.89
39223;BME280;24936;46.328;11.026;2023-02-17T11:27:25;95300.59;;;13.91;31.24
39223;BME280;24936;46.328;11.026;2023-02-17T11:29:51;95298.66;;;14.61;30.57
39223;BME280;24936;46.328;11.026;2023-02-17T11:32:17;95292.06;;;15.95;29.14
39223;BME280;24936;46.328;11.026;2023-02-17T11:34:55;95290.81;;;15.07;28.61
39223;BME280;24936;46.328;11.026;2023-02-17T11:37:22;95293.25;;;15.18;29.67
39223;BME280;24936;46.328;11.026;2023-02-17T11:39:53;95293.34;;;14.98;28.96
39223;BME280;24936;46.328;11.026;2023-02-17T11:44:50;95284.97;;;13.59;32.44
39223;BME280;24936;46.328;11.026;2023-02-17T11:47:42;95283.28;;;13.38;32.47
39223;BME280;24936;46.328;11.026;2023-02-17T12:01:55;95262.78;;;13.21;32.48
39223;BME280;24936;46.328;11.026;2023-02-17T12:04:29;95256.00;;;13.28;34.62
39223;BME280;24936;46.328;11.026;2023-02-17T12:15:22;95254.63;;;13.63;34.27
39223;BME280;24936;46.328;11.026;2023-02-17T12:18:13;95249.44;;;14.11;32.56
39223;BME280;24936;46.328;11.026;2023-02-17T12:26:14;95240.84;;;14.46;30.80
39223;BME280;24936;46.328;11.026;2023-02-17T12:34:01;95224.53;;;16.76;27.48
39223;BME280;24936;46.328;11.026;2023-02-17T12:36:37;95231.34;;;16.44;28.16
39223;BME280;24936;46.328;11.026;2023-02-17T12:39:17;95236.59;;;16.10;28.23
39223;BME280;24936;46.328;11.026;2023-02-17T12:42:03;95231.13;;;16.72;29.00
39223;BME280;24936;46.328;11.026;2023-02-17T12:44:39;95230.22;;;15.84;29.55
39223;BME280;24936;46.328;11.026;2023-02-17T12:47:29;95230.06;;;14.10;30.42
39223;BME280;24936;46.328;11.026;2023-02-17T12:50:05;95227.97;;;12.55;33.25
39223;BME280;24936;46.328;11.026;2023-02-17T12:52:43;95219.44;;;14.30;31.71
39223;BME280;24936;46.328;11.026;2023-02-17T12:55:21;95219.41;;;13.72;32.84
39223;BME280;24936;46.328;11.026;2023-02-17T12:58:00;95211.59;;;12.51;33.67
39223;BME280;24936;46.328;11.026;2023-02-17T13:00:33;95216.75;;;11.58;35.04
39223;BME280;24936;46.328;11.026;2023-02-17T13:03:01;95217.16;;;11.21;37.82
39223;BME280;24936;46.328;11.026;2023-02-17T13:05:33;95221.25;;;11.14;36.45
39223;BME280;24936;46.328;11.026;2023-02-17T13:08:15;95221.88;;;11.06;37.97
39223;BME280;24936;46.328;11.026;2023-02-17T13:10:43;95211.59;;;10.92;39.40
39223;BME280;24936;46.328;11.026;2023-02-17T13:13:10;95210.69;;;10.81;37.46
39223;BME280;24936;46.328;11.026;2023-02-17T13:15:41;95211.78;;;10.67;37.95
39223;BME280;24936;46.328;11.026;2023-02-17T13:18:25;95211.06;;;10.54;39.75
39223;BME280;24936;46.328;11.026;2023-02-17T13:21:00;95214.91;;;10.38;39.26
39223;BME280;24936;46.328;11.026;2023-02-17T13:23:56;95208.91;;;10.25;40.32
39223;BME280;24936;46.328;11.026;2023-02-17T13:28:49;95203.91;;;10.22;41.83
39223;BME280;24936;46.328;11.026;2023-02-17T13:31:21;95193.13;;;10.14;39.64
39223;BME280;24936;46.328;11.026;2023-02-17T13:33:50;95204.00;;;10.09;40.46
39223;BME280;24936;46.328;11.026;2023-02-17T13:36:33;95204.13;;;10.07;40.54
39223;BME280;24936;46.328;11.026;2023-02-17T13:41:51;95195.53;;;10.39;41.17
39223;BME280;24936;46.328;11.026;2023-02-17T13:44:38;95194.91;;;10.36;39.73
39223;BME280;24936;46.328;11.026;2023-02-17T13:47:34;95198.88;;;10.64;38.58
39223;BME280;24936;46.328;11.026;2023-02-17T13:50:03;95201.84;;;10.60;38.59
39223;BME280;24936;46.328;11.026;2023-02-17T13:52:30;95200.72;;;10.85;40.80
39223;BME280;24936;46.328;11.026;2023-02-17T13:54:58;95202.59;;;11.06;39.71
39223;BME280;24936;46.328;11.026;2023-02-17T14:00:19;95196.91;;;11.22;40.93
39223;BME280;24936;46.328;11.026;2023-02-17T14:02:46;95196.19;;;11.20;37.30
39223;BME280;24936;46.328;11.026;2023-02-17T14:05:27;95192.94;;;12.43;37.33
39223;BME280;24936;46.328;11.026;2023-02-17T14:08:06;95184.78;;;13.56;37.76
39223;BME280;24936;46.328;11.026;2023-02-17T14:10:36;95185.91;;;13.43;34.75
39223;BME280;24936;46.328;11.026;2023-02-17T14:13:02;95187.13;;;13.39;34.60
39223;BME280;24936;46.328;11.026;2023-02-17T14:15:27;95182.25;;;13.35;36.88
39223;BME280;24936;46.328;11.026;2023-02-17T14:17:54;95188.84;;;12.29;37.92
39223;BME280;24936;46.328;11.026;2023-02-17T14:20:38;95184.34;;;11.46;40.13
39223;BME280;24936;46.328;11.026;2023-02-17T14:23:11;95179.53;;;10.98;41.76
39223;BME280;24936;46.328;11.026;2023-02-17T14:25:42;95182.31;;;10.85;42.64
39223;BME280;24936;46.328;11.026;2023-02-17T14:28:22;95182.97;;;10.54;43.26
39223;BME280;24936;46.328;11.026;2023-02-17T14:30:48;95177.31;;;11.36;42.70